Time;durP1;ratioP1;P1;durP2;ratioP2;P2;SDS_P1;SDS_P2;PMS_P1;PMS_P2;Temp;Humidity;BMP_temperature;BMP_pressure;BME280_temperature;BME280_humidity;BME280_pressure;Samples;Min_cycle;Max_cycle;Signal;HPM_P1;HPM_P2
2022/05/27 00:00:44;;;;;;;2.85;0.50;;;;;;;;;;2077248;28;20057;-62
2022/05/27 00:02:03;;;;;;;1.63;0.60;;;;;;;;;;2076033;28;20030;-62
2022/05/27 00:03:22;;;;;;;0.50;0.50;;;;;;;;;;2075843;28;20117;-62
2022/05/27 00:04:41;;;;;;;0.55;0.55;;;;;;;;;;2074080;28;20030;-62
2022/05/27 00:06:00;;;;;;;1.95;0.60;;;;;;;;;;2077522;28;20509;-61
2022/05/27 00:07:19;;;;;;;1.80;0.75;;;;;;;;;;2071539;28;20029;-62
2022/05/27 00:08:38;;;;;;;0.65;0.50;;;;;;;;;;2074280;28;20026;-62
2022/05/27 00:09:57;;;;;;;0.60;0.60;;;;;;;;;;2074321;28;20030;-62
2022/05/27 00:11:16;;;;;;;0.77;0.68;;;;;;;;;;2074892;28;20037;-61
2022/05/27 00:12:36;;;;;;;1.70;0.63;;;;;;;;;;2077372;28;20038;-62
2022/05/27 00:13:54;;;;;;;0.60;0.60;;;;;;;;;;2074608;28;20045;-61
2022/05/27 00:15:14;;;;;;;0.70;0.50;;;;;;;;;;2076900;28;20399;-61
2022/05/27 00:16:33;;;;;;;1.80;0.47;;;;;;;;;;2077413;28;20026;-61
2022/05/27 00:17:52;;;;;;;1.75;0.60;;;;;;;;;;2075333;28;20065;-62
2022/05/27 00:19:11;;;;;;;1.35;0.50;;;;;;;;;;2075966;28;20022;-63
2022/05/27 00:20:30;;;;;;;0.80;0.80;;;;;;;;;;2075257;28;20026;-62
2022/05/27 00:21:49;;;;;;;0.75;0.55;;;;;;;;;;2074032;28;20030;-62
2022/05/27 00:23:08;;;;;;;0.88;0.88;;;;;;;;;;2075026;28;20033;-63
2022/05/27 00:24:27;;;;;;;0.70;0.70;;;;;;;;;;2077809;28;20514;-62
2022/05/27 00:25:46;;;;;;;1.08;0.63;;;;;;;;;;2076344;28;20025;-63
2022/05/27 00:27:08;;;;;;;1.30;0.50;;;;;;;;;;2075020;28;20063;-62
2022/05/27 00:28:26;;;;;;;0.50;0.50;;;;;;;;;;2074152;28;20038;-62
2022/05/27 00:29:45;;;;;;;0.88;0.50;;;;;;;;;;2075869;28;20512;-63
2022/05/27 00:31:06;;;;;;;0.82;0.55;;;;;;;;;;2075796;28;20034;-63
2022/05/27 00:32:24;;;;;;;0.40;0.40;;;;;;;;;;2075537;28;20104;-62
2022/05/27 00:33:43;;;;;;;1.67;0.55;;;;;;;;;;2074803;28;20105;-63
2022/05/27 00:35:03;;;;;;;0.85;0.60;;;;;;;;;;2075225;28;20034;-62
2022/05/27 00:36:22;;;;;;;1.25;0.70;;;;;;;;;;2075213;28;20034;-62
2022/05/27 00:37:41;;;;;;;0.70;0.70;;;;;;;;;;2073583;28;20022;-62
2022/05/27 00:39:02;;;;;;;0.98;0.60;;;;;;;;;;2075147;28;20022;-62
2022/05/27 00:40:21;;;;;;;0.50;0.50;;;;;;;;;;2075217;28;20014;-63
2022/05/27 00:41:43;;;;;;;1.50;0.45;;;;;;;;;;2075157;28;20022;-62
2022/05/27 00:43:02;;;;;;;0.93;0.50;;;;;;;;;;2076472;28;20021;-63
2022/05/27 00:44:21;;;;;;;0.38;0.38;;;;;;;;;;2075844;28;20487;-62
2022/05/27 00:45:41;;;;;;;2.58;0.50;;;;;;;;;;2078035;28;20112;-63
2022/05/27 00:47:03;;;;;;;1.98;0.52;;;;;;;;;;2073821;28;20018;-62
2022/05/27 00:48:22;;;;;;;0.63;0.50;;;;;;;;;;2078071;28;20029;-63
2022/05/27 00:49:44;;;;;;;0.63;0.50;;;;;;;;;;2076451;28;20029;-63
2022/05/27 00:51:07;;;;;;;1.73;0.50;;;;;;;;;;2074834;28;20042;-63
2022/05/27 00:52:31;;;;;;;0.90;0.70;;;;;;;;;;2076447;28;20431;-63
2022/05/27 00:53:56;;;;;;;0.40;0.40;;;;;;;;;;2076583;28;20037;-62
2022/05/27 00:55:20;;;;;;;0.77;0.57;;;;;;;;;;2077729;28;20109;-63
2022/05/27 00:56:40;;;;;;;0.40;0.40;;;;;;;;;;2078519;28;20029;-63
2022/05/27 00:58:10;;;;;;;0.50;0.50;;;;;;;;;;2077753;28;20037;-63
2022/05/27 00:59:32;;;;;;;0.80;0.57;;;;;;;;;;2077126;28;20030;-63
2022/05/27 01:00:51;;;;;;;0.50;0.50;;;;;;;;;;2076408;28;20029;-63
2022/05/27 01:02:10;;;;;;;0.65;0.50;;;;;;;;;;2076311;28;20029;-64
2022/05/27 01:03:31;;;;;;;2.47;0.60;;;;;;;;;;2076738;28;20053;-62
2022/05/27 01:04:50;;;;;;;0.63;0.43;;;;;;;;;;2079562;28;20030;-62
2022/05/27 01:06:09;;;;;;;0.82;0.50;;;;;;;;;;2078316;28;20025;-62
2022/05/27 01:07:28;;;;;;;2.20;0.50;;;;;;;;;;2078708;28;20029;-62
2022/05/27 01:08:47;;;;;;;0.55;0.40;;;;;;;;;;2078482;28;20025;-62
2022/05/27 01:10:07;;;;;;;0.55;0.55;;;;;;;;;;2077092;28;20494;-63
2022/05/27 01:11:58;;;;;;;0.60;0.60;;;;;;;;;;2076931;28;20073;-62
2022/05/27 01:13:23;;;;;;;0.50;0.50;;;;;;;;;;2077141;28;20120;-64
2022/05/27 01:14:51;;;;;;;0.65;0.50;;;;;;;;;;2075212;28;20034;-62
2022/05/27 01:16:13;;;;;;;0.30;0.30;;;;;;;;;;2079524;28;20025;-62
2022/05/27 01:17:39;;;;;;;1.00;0.60;;;;;;;;;;2076331;28;20583;-62
2022/05/27 01:20:52;;;;;;;0.35;0.35;;;;;;;;;;2076036;28;20038;-62
2022/05/27 01:22:14;;;;;;;1.02;0.63;;;;;;;;;;2074095;28;20125;-62
2022/05/27 01:23:36;;;;;;;1.75;0.47;;;;;;;;;;2075605;28;20030;-62
2022/05/27 01:24:59;;;;;;;3.00;0.40;;;;;;;;;;2077653;28;20491;-62
2022/05/27 01:26:29;;;;;;;1.23;0.57;;;;;;;;;;2077442;28;20468;-63
2022/05/27 01:28:07;;;;;;;0.40;0.40;;;;;;;;;;2077518;28;20034;-62
2022/05/27 01:29:45;;;;;;;0.68;0.50;;;;;;;;;;2076799;28;20037;-64
2022/05/27 01:31:09;;;;;;;1.88;0.40;;;;;;;;;;2079073;28;20029;-62
2022/05/27 01:32:35;;;;;;;0.63;0.52;;;;;;;;;;2077808;28;20574;-63
2022/05/27 01:33:54;;;;;;;0.70;0.70;;;;;;;;;;2076233;28;20042;-62
2022/05/27 01:35:37;;;;;;;0.45;0.45;;;;;;;;;;2079974;28;20802;-63
2022/05/27 01:37:02;;;;;;;0.60;0.60;;;;;;;;;;2077881;28;20046;-62
2022/05/27 01:38:37;;;;;;;2.58;0.60;;;;;;;;;;2079415;28;20022;-62
2022/05/27 01:39:55;;;;;;;1.20;0.90;;;;;;;;;;2078672;28;20030;-63
2022/05/27 01:41:23;;;;;;;1.25;0.60;;;;;;;;;;2073043;28;20030;-62
2022/05/27 01:42:51;;;;;;;0.40;0.40;;;;;;;;;;2074946;28;20124;-63
2022/05/27 01:44:33;;;;;;;1.23;0.80;;;;;;;;;;2075631;28;20022;-62
2022/05/27 01:45:59;;;;;;;0.50;0.50;;;;;;;;;;2058728;28;20070;-62
2022/05/27 01:47:22;;;;;;;0.50;0.50;;;;;;;;;;2078241;28;20034;-62
2022/05/27 01:48:59;;;;;;;0.68;0.68;;;;;;;;;;2075532;28;20034;-63
2022/05/27 01:50:18;;;;;;;0.70;0.70;;;;;;;;;;2071055;28;20030;-63
2022/05/27 01:51:43;;;;;;;0.40;0.40;;;;;;;;;;2074134;28;20132;-62
2022/05/27 01:53:06;;;;;;;0.57;0.57;;;;;;;;;;2078525;28;20104;-63
2022/05/27 01:54:43;;;;;;;0.50;0.50;;;;;;;;;;2077016;28;20396;-63
2022/05/27 01:56:07;;;;;;;0.52;0.50;;;;;;;;;;2077721;28;20034;-63
2022/05/27 01:57:55;;;;;;;2.22;1.10;;;;;;;;;;2092814;28;20033;-63
2022/05/27 01:59:17;;;;;;;1.67;0.50;;;;;;;;;;2071128;28;20033;-63
2022/05/27 02:00:38;;;;;;;0.57;0.57;;;;;;;;;;2078253;28;20037;-63
2022/05/27 02:02:00;;;;;;;0.82;0.80;;;;;;;;;;2074957;28;20487;-63
2022/05/27 02:03:30;;;;;;;1.40;0.50;;;;;;;;;;2072070;28;20033;-63
2022/05/27 02:04:54;;;;;;;1.15;0.60;;;;;;;;;;2075673;28;20471;-63
2022/05/27 02:06:19;;;;;;;0.47;0.47;;;;;;;;;;2075224;28;20037;-64
2022/05/27 02:07:52;;;;;;;0.90;0.60;;;;;;;;;;2075739;28;20034;-63
2022/05/27 02:09:14;;;;;;;0.90;0.70;;;;;;;;;;2076216;28;20113;-63
2022/05/27 02:10:33;;;;;;;2.30;0.60;;;;;;;;;;2075240;28;20037;-63
2022/05/27 02:11:54;;;;;;;2.28;0.65;;;;;;;;;;2092578;28;20417;-63
2022/05/27 02:13:35;;;;;;;0.90;0.63;;;;;;;;;;2078547;28;20034;-63
2022/05/27 02:14:57;;;;;;;0.60;0.60;;;;;;;;;;2074511;28;20038;-63
2022/05/27 02:16:18;;;;;;;2.58;0.60;;;;;;;;;;2076175;28;20487;-64
2022/05/27 02:17:39;;;;;;;1.85;0.70;;;;;;;;;;2076626;28;20037;-63
2022/05/27 02:19:02;;;;;;;0.80;0.80;;;;;;;;;;2073031;28;20395;-63
2022/05/27 02:20:28;;;;;;;0.65;0.47;;;;;;;;;;2076495;28;20021;-63
2022/05/27 02:21:56;;;;;;;0.85;0.60;;;;;;;;;;2073921;28;20113;-63
2022/05/27 02:23:23;;;;;;;1.75;0.70;;;;;;;;;;2073741;28;20057;-63
2022/05/27 02:25:02;;;;;;;0.47;0.47;;;;;;;;;;2076351;28;20090;-63
2022/05/27 02:26:24;;;;;;;1.73;0.80;;;;;;;;;;2076239;28;20038;-63
2022/05/27 02:27:50;;;;;;;0.60;0.60;;;;;;;;;;2075975;28;20030;-63
2022/05/27 02:29:11;;;;;;;0.60;0.60;;;;;;;;;;2074511;28;20021;-64
2022/05/27 02:30:31;;;;;;;0.50;0.50;;;;;;;;;;2074810;28;20026;-63
2022/05/27 02:31:52;;;;;;;2.63;0.60;;;;;;;;;;2074894;28;20030;-63
2022/05/27 02:35:11;;;;;;;0.95;0.70;;;;;;;;;;2076463;28;20025;-63
2022/05/27 02:36:35;;;;;;;2.30;0.60;;;;;;;;;;2071913;28;20076;-63
2022/05/27 02:37:56;;;;;;;0.57;0.57;;;;;;;;;;2091704;28;20012;-63
2022/05/27 02:39:14;;;;;;;1.58;0.63;;;;;;;;;;2080699;28;20396;-63
2022/05/27 02:40:42;;;;;;;1.58;0.52;;;;;;;;;;2073748;28;20153;-63
2022/05/27 02:42:10;;;;;;;2.67;0.55;;;;;;;;;;2073249;28;20454;-63
2022/05/27 02:43:32;;;;;;;1.98;1.35;;;;;;;;;;2075004;28;20026;-63
2022/05/27 02:45:17;;;;;;;0.75;0.70;;;;;;;;;;2075273;28;20053;-63
2022/05/27 02:46:56;;;;;;;1.33;0.60;;;;;;;;;;2075674;28;20037;-63
2022/05/27 02:48:15;;;;;;;1.75;0.63;;;;;;;;;;2075225;28;20029;-63
2022/05/27 02:49:43;;;;;;;1.73;0.60;;;;;;;;;;2074209;28;20061;-63
2022/05/27 02:51:05;;;;;;;1.02;0.70;;;;;;;;;;2078402;28;20050;-62
2022/05/27 02:52:30;;;;;;;0.88;0.57;;;;;;;;;;2077117;28;20033;-63
2022/05/27 02:54:15;;;;;;;0.88;0.50;;;;;;;;;;2075351;28;20034;-63
2022/05/27 02:55:40;;;;;;;1.88;0.80;;;;;;;;;;2076082;28;20030;-62
2022/05/27 02:57:06;;;;;;;0.57;0.57;;;;;;;;;;2075744;28;20029;-63
2022/05/27 02:58:25;;;;;;;2.10;0.68;;;;;;;;;;2077346;28;20076;-63
2022/05/27 02:59:44;;;;;;;0.50;0.50;;;;;;;;;;2076731;28;20030;-63
2022/05/27 03:01:03;;;;;;;3.55;0.60;;;;;;;;;;2075343;28;20030;-63
2022/05/27 03:02:22;;;;;;;0.60;0.60;;;;;;;;;;2075811;28;20480;-62
2022/05/27 03:03:41;;;;;;;0.75;0.40;;;;;;;;;;2075812;28;20713;-63
2022/05/27 03:05:00;;;;;;;0.50;0.50;;;;;;;;;;2074847;28;20022;-63
2022/05/27 03:06:27;;;;;;;1.58;0.40;;;;;;;;;;2076963;28;20022;-63
2022/05/27 03:07:58;;;;;;;0.82;0.40;;;;;;;;;;2075170;28;20041;-63
2022/05/27 03:09:24;;;;;;;0.40;0.40;;;;;;;;;;2075609;28;20030;-63
2022/05/27 03:11:02;;;;;;;0.88;0.60;;;;;;;;;;2078518;28;20033;-62
2022/05/27 03:12:21;;;;;;;0.70;0.40;;;;;;;;;;2075768;28;20025;-62
2022/05/27 03:13:55;;;;;;;0.38;0.38;;;;;;;;;;2075911;28;20029;-62
2022/05/27 03:15:20;;;;;;;0.50;0.47;;;;;;;;;;2073196;28;20112;-63
2022/05/27 03:16:45;;;;;;;0.75;0.50;;;;;;;;;;2077167;28;20037;-63
2022/05/27 03:18:40;;;;;;;0.80;0.63;;;;;;;;;;2076302;28;20049;-63
2022/05/27 03:20:26;;;;;;;1.77;0.60;;;;;;;;;;2073689;28;20033;-62
2022/05/27 03:21:48;;;;;;;0.47;0.47;;;;;;;;;;2076008;28;20037;-63
2022/05/27 03:23:13;;;;;;;1.35;0.50;;;;;;;;;;2076318;28;20086;-63
2022/05/27 03:24:44;;;;;;;0.40;0.40;;;;;;;;;;2077011;28;20502;-62
2022/05/27 03:26:15;;;;;;;0.80;0.60;;;;;;;;;;2076150;28;20042;-63
2022/05/27 03:27:47;;;;;;;0.50;0.40;;;;;;;;;;2074436;28;20430;-63
2022/05/27 03:29:15;;;;;;;1.48;0.52;;;;;;;;;;2078138;28;20515;-62
2022/05/27 03:30:38;;;;;;;1.75;0.60;;;;;;;;;;2076867;28;20168;-62
2022/05/27 03:32:09;;;;;;;0.80;0.70;;;;;;;;;;2075387;28;20061;-62
2022/05/27 03:33:44;;;;;;;0.68;0.60;;;;;;;;;;2077971;28;20396;-63
2022/05/27 03:35:15;;;;;;;1.77;0.50;;;;;;;;;;2075603;28;20112;-62
2022/05/27 03:36:45;;;;;;;3.50;0.55;;;;;;;;;;2075496;28;20030;-62
2022/05/27 03:38:06;;;;;;;1.45;0.60;;;;;;;;;;2075385;28;20022;-63
2022/05/27 03:39:31;;;;;;;1.13;0.75;;;;;;;;;;2075829;28;20037;-62
2022/05/27 03:40:53;;;;;;;1.98;0.75;;;;;;;;;;2076148;28;20030;-62
2022/05/27 03:42:13;;;;;;;1.40;0.50;;;;;;;;;;2077054;28;20491;-64
2022/05/27 03:43:33;;;;;;;0.98;0.60;;;;;;;;;;2076373;28;20030;-62
2022/05/27 03:45:12;;;;;;;0.50;0.50;;;;;;;;;;2076911;28;20026;-63
2022/05/27 03:46:31;;;;;;;0.73;0.50;;;;;;;;;;2077198;28;20391;-63
2022/05/27 03:47:50;;;;;;;0.88;0.70;;;;;;;;;;2076347;28;20391;-62
2022/05/27 03:49:09;;;;;;;1.95;0.50;;;;;;;;;;2075237;28;20029;-62
2022/05/27 03:50:28;;;;;;;2.65;0.60;;;;;;;;;;2063448;28;20030;-63
2022/05/27 03:51:47;;;;;;;2.92;0.73;;;;;;;;;;2077284;28;20045;-62
2022/05/27 03:53:06;;;;;;;1.13;0.60;;;;;;;;;;2078598;28;20034;-63
2022/05/27 03:54:25;;;;;;;1.92;1.02;;;;;;;;;;2076790;28;20392;-62
2022/05/27 03:55:46;;;;;;;2.65;0.80;;;;;;;;;;2076457;28;20444;-63
2022/05/27 03:57:05;;;;;;;0.50;0.50;;;;;;;;;;2075705;28;20049;-63
2022/05/27 03:58:24;;;;;;;1.45;0.82;;;;;;;;;;2075953;28;20022;-62
2022/05/27 03:59:43;;;;;;;1.85;0.73;;;;;;;;;;2078225;28;20029;-63
2022/05/27 04:01:02;;;;;;;1.25;0.50;;;;;;;;;;2077024;28;20025;-62
2022/05/27 04:02:21;;;;;;;2.50;0.70;;;;;;;;;;2074031;28;20022;-63
2022/05/27 04:03:40;;;;;;;5.47;0.52;;;;;;;;;;2077249;28;20100;-62
2022/05/27 04:04:59;;;;;;;1.08;0.73;;;;;;;;;;2076833;28;20045;-62
2022/05/27 04:06:18;;;;;;;0.77;0.73;;;;;;;;;;2077435;28;20034;-64
2022/05/27 04:07:37;;;;;;;3.50;0.95;;;;;;;;;;2076509;28;20495;-62
2022/05/27 04:08:59;;;;;;;2.38;0.70;;;;;;;;;;2075231;28;20037;-63
2022/05/27 04:10:19;;;;;;;1.90;0.70;;;;;;;;;;2089430;28;20077;-63
2022/05/27 04:11:38;;;;;;;2.05;0.60;;;;;;;;;;2081961;28;20104;-63
2022/05/27 04:12:57;;;;;;;1.77;0.95;;;;;;;;;;2076469;28;20026;-62
2022/05/27 04:14:17;;;;;;;1.60;0.63;;;;;;;;;;2075142;28;20046;-63
2022/05/27 04:15:36;;;;;;;0.90;0.73;;;;;;;;;;2078776;28;20042;-62
2022/05/27 04:18:33;;;;;;;2.00;0.73;;;;;;;;;;2078342;28;20029;-62
2022/05/27 04:19:52;;;;;;;1.10;0.88;;;;;;;;;;2075560;28;20450;-63
2022/05/27 04:21:11;;;;;;;4.07;1.15;;;;;;;;;;2074847;28;20033;-62
2022/05/27 04:22:30;;;;;;;2.28;0.80;;;;;;;;;;2074808;28;20427;-63
2022/05/27 04:23:49;;;;;;;2.72;0.85;;;;;;;;;;2075609;28;20034;-63
2022/05/27 04:25:09;;;;;;;3.20;1.00;;;;;;;;;;2075547;28;20764;-63
2022/05/27 04:26:28;;;;;;;1.30;0.80;;;;;;;;;;2075514;28;20034;-63
2022/05/27 04:27:47;;;;;;;2.08;0.80;;;;;;;;;;2074132;28;20030;-64
2022/05/27 04:29:06;;;;;;;1.30;0.80;;;;;;;;;;2078085;28;20025;-63
2022/05/27 04:30:25;;;;;;;2.53;1.02;;;;;;;;;;2078298;28;20430;-62
2022/05/27 04:31:44;;;;;;;2.28;1.10;;;;;;;;;;2077074;28;20422;-62
2022/05/27 04:33:03;;;;;;;1.42;1.23;;;;;;;;;;2077101;28;20477;-63
2022/05/27 04:34:22;;;;;;;4.30;1.35;;;;;;;;;;2079986;28;20491;-62
2022/05/27 04:35:41;;;;;;;2.28;1.08;;;;;;;;;;2076410;28;20100;-62
2022/05/27 04:37:00;;;;;;;2.88;0.85;;;;;;;;;;2077303;28;20026;-62
2022/05/27 04:38:21;;;;;;;1.92;1.00;;;;;;;;;;2074646;28;20106;-62
2022/05/27 04:39:40;;;;;;;2.65;1.15;;;;;;;;;;2075449;28;20026;-62
2022/05/27 04:40:59;;;;;;;4.15;0.90;;;;;;;;;;2076092;28;20026;-63
2022/05/27 04:42:18;;;;;;;4.53;1.42;;;;;;;;;;2075261;28;20023;-62
2022/05/27 04:43:37;;;;;;;2.28;0.82;;;;;;;;;;2078473;28;20034;-62
2022/05/27 04:44:56;;;;;;;1.40;0.60;;;;;;;;;;2076623;28;20030;-62
2022/05/27 04:46:14;;;;;;;3.60;0.93;;;;;;;;;;2076055;28;20026;-63
2022/05/27 04:47:36;;;;;;;3.92;1.20;;;;;;;;;;2075090;28;20037;-63
2022/05/27 04:48:54;;;;;;;3.90;1.55;;;;;;;;;;2076108;28;20484;-62
2022/05/27 04:50:14;;;;;;;3.80;1.20;;;;;;;;;;2076819;28;20033;-63
2022/05/27 04:51:32;;;;;;;2.63;1.35;;;;;;;;;;2076320;28;20092;-63
2022/05/27 04:52:51;;;;;;;2.45;1.02;;;;;;;;;;2078181;28;20061;-62
2022/05/27 04:54:10;;;;;;;3.72;1.17;;;;;;;;;;2078484;28;20030;-64
2022/05/27 04:55:31;;;;;;;3.72;1.58;;;;;;;;;;2078143;28;20109;-63
2022/05/27 04:56:50;;;;;;;2.53;1.02;;;;;;;;;;2077682;28;20105;-62
2022/05/27 04:58:11;;;;;;;3.17;1.10;;;;;;;;;;2079080;28;20053;-62
2022/05/27 04:59:31;;;;;;;3.50;1.13;;;;;;;;;;2079402;28;20061;-62
2022/05/27 05:00:50;;;;;;;2.85;1.45;;;;;;;;;;2078483;28;20018;-62
2022/05/27 05:02:09;;;;;;;9.43;1.65;;;;;;;;;;2076723;28;20022;-62
2022/05/27 05:03:28;;;;;;;3.83;1.40;;;;;;;;;;2074768;28;20104;-63
2022/05/27 05:04:47;;;;;;;4.50;1.35;;;;;;;;;;2073504;28;20026;-63
2022/05/27 05:06:06;;;;;;;8.15;2.33;;;;;;;;;;2073762;28;20042;-63
2022/05/27 05:07:25;;;;;;;2.88;1.27;;;;;;;;;;2077672;28;20029;-62
2022/05/27 05:08:44;;;;;;;4.15;1.23;;;;;;;;;;2076261;28;20030;-63
2022/05/27 05:10:03;;;;;;;3.97;1.90;;;;;;;;;;2076116;28;20112;-63
2022/05/27 05:11:22;;;;;;;5.80;1.40;;;;;;;;;;2076263;28;20029;-63
2022/05/27 05:12:41;;;;;;;4.60;1.77;;;;;;;;;;2076618;28;20029;-62
2022/05/27 05:14:00;;;;;;;6.05;1.90;;;;;;;;;;2077438;28;20041;-63
2022/05/27 05:15:23;;;;;;;2.60;1.48;;;;;;;;;;2078084;28;20480;-62
2022/05/27 05:16:42;;;;;;;4.88;1.52;;;;;;;;;;2078148;28;20109;-63
2022/05/27 05:18:01;;;;;;;6.68;2.08;;;;;;;;;;2076687;28;20026;-62
2022/05/27 05:19:20;;;;;;;3.92;1.48;;;;;;;;;;2077031;28;20026;-63
2022/05/27 05:20:39;;;;;;;6.80;1.67;;;;;;;;;;2074981;28;20034;-62
2022/05/27 05:21:57;;;;;;;4.95;1.60;;;;;;;;;;2075074;28;20480;-63
2022/05/27 05:23:16;;;;;;;5.47;1.75;;;;;;;;;;2078750;28;20033;-62
2022/05/27 05:24:35;;;;;;;3.08;1.45;;;;;;;;;;2077854;28;20037;-62
2022/05/27 05:25:54;;;;;;;4.90;2.08;;;;;;;;;;2077784;28;20038;-63
2022/05/27 05:27:13;;;;;;;7.53;1.98;;;;;;;;;;2076713;28;20033;-63
2022/05/27 05:28:32;;;;;;;5.15;1.75;;;;;;;;;;2076384;28;20072;-63
2022/05/27 05:29:52;;;;;;;5.55;1.80;;;;;;;;;;2074784;28;20021;-63
2022/05/27 05:31:16;;;;;;;6.32;1.95;;;;;;;;;;2076099;28;20846;-63
2022/05/27 05:32:35;;;;;;;3.33;1.88;;;;;;;;;;2073735;28;20041;-65
2022/05/27 05:33:59;;;;;;;6.65;2.38;;;;;;;;;;2075917;28;20021;-64
2022/05/27 05:35:18;;;;;;;9.93;2.15;;;;;;;;;;2075324;28;20034;-63
2022/05/27 05:36:37;;;;;;;7.95;2.80;;;;;;;;;;2075960;28;20030;-63
2022/05/27 05:37:57;;;;;;;7.43;2.17;;;;;;;;;;2077231;28;20026;-63
2022/05/27 05:39:16;;;;;;;7.30;2.42;;;;;;;;;;2076645;28;20034;-63
2022/05/27 05:40:35;;;;;;;6.78;1.77;;;;;;;;;;2073266;28;20068;-63
2022/05/27 05:42:01;;;;;;;7.90;2.28;;;;;;;;;;2074655;28;20034;-63
2022/05/27 05:43:20;;;;;;;6.38;1.88;;;;;;;;;;2079029;28;20126;-63
2022/05/27 05:44:39;;;;;;;5.55;1.92;;;;;;;;;;2077503;28;20030;-63
2022/05/27 05:45:58;;;;;;;7.68;2.15;;;;;;;;;;2076630;28;20038;-63
2022/05/27 05:47:17;;;;;;;6.38;2.20;;;;;;;;;;2076886;28;20109;-65
2022/05/27 05:48:36;;;;;;;12.32;2.50;;;;;;;;;;2077550;28;20128;-64
2022/05/27 05:49:55;;;;;;;6.90;2.20;;;;;;;;;;2077213;28;20407;-64
2022/05/27 05:51:14;;;;;;;9.38;2.45;;;;;;;;;;2074772;28;20030;-64
2022/05/27 05:52:33;;;;;;;6.82;2.08;;;;;;;;;;2075857;28;20045;-64
2022/05/27 05:53:54;;;;;;;8.32;2.58;;;;;;;;;;2076434;28;20041;-64
2022/05/27 05:55:13;;;;;;;5.47;2.25;;;;;;;;;;2073707;28;20030;-64
2022/05/27 05:56:33;;;;;;;5.18;1.88;;;;;;;;;;2077887;28;20034;-64
2022/05/27 05:57:52;;;;;;;7.35;2.13;;;;;;;;;;2074743;28;20022;-64
2022/05/27 05:59:11;;;;;;;5.05;2.45;;;;;;;;;;2077347;28;20100;-64
2022/05/27 06:00:30;;;;;;;7.95;2.50;;;;;;;;;;2075829;28;20041;-63
2022/05/27 06:01:49;;;;;;;5.45;2.10;;;;;;;;;;2074499;28;20022;-64
2022/05/27 06:03:08;;;;;;;6.25;2.00;;;;;;;;;;2075867;28;20108;-65
2022/05/27 06:04:27;;;;;;;8.02;2.40;;;;;;;;;;2075335;28;20026;-64
2022/05/27 06:05:47;;;;;;;9.70;2.05;;;;;;;;;;2077616;28;20034;-64
2022/05/27 06:07:06;;;;;;;6.20;1.52;;;;;;;;;;2074676;28;20034;-64
2022/05/27 06:08:26;;;;;;;10.27;2.83;;;;;;;;;;2074780;28;20030;-64
2022/05/27 06:09:45;;;;;;;7.15;1.83;;;;;;;;;;2075605;28;20034;-64
2022/05/27 06:11:05;;;;;;;10.88;2.42;;;;;;;;;;2077879;28;20496;-64
2022/05/27 06:12:25;;;;;;;6.53;2.15;;;;;;;;;;2079634;28;20033;-64
2022/05/27 06:13:44;;;;;;;7.55;1.85;;;;;;;;;;2076097;28;20495;-64
2022/05/27 06:15:05;;;;;;;7.00;2.45;;;;;;;;;;2075339;28;20029;-65
2022/05/27 06:16:23;;;;;;;7.43;2.15;;;;;;;;;;2074535;28;20427;-65
2022/05/27 06:17:42;;;;;;;5.45;1.92;;;;;;;;;;2076129;28;20033;-64
2022/05/27 06:19:01;;;;;;;5.10;2.00;;;;;;;;;;2075295;28;20034;-65
2022/05/27 06:20:20;;;;;;;9.88;2.30;;;;;;;;;;2077538;28;20426;-64
2022/05/27 06:21:38;;;;;;;7.53;1.95;;;;;;;;;;2076815;28;20029;-64
2022/05/27 06:22:58;;;;;;;5.55;2.30;;;;;;;;;;2076084;28;20030;-64
2022/05/27 06:24:17;;;;;;;6.15;1.92;;;;;;;;;;2077093;28;20034;-65
2022/05/27 06:25:38;;;;;;;8.90;2.33;;;;;;;;;;2064240;28;20494;-65
2022/05/27 06:26:57;;;;;;;11.98;2.80;;;;;;;;;;2073165;28;20022;-65
2022/05/27 06:34:56;;;;;;;7.28;2.13;;;;;;;;;;2076392;28;20026;-65
2022/05/27 06:36:16;;;;;;;9.68;2.70;;;;;;;;;;2084463;28;20034;-64
2022/05/27 06:37:35;;;;;;;8.73;2.22;;;;;;;;;;2075109;28;20105;-64
2022/05/27 06:38:54;;;;;;;10.13;2.97;;;;;;;;;;2076127;28;20116;-64
2022/05/27 06:40:13;;;;;;;8.75;2.47;;;;;;;;;;2077678;28;20021;-64
2022/05/27 06:41:32;;;;;;;7.60;2.30;;;;;;;;;;2076530;28;20022;-64
2022/05/27 06:42:51;;;;;;;11.32;2.53;;;;;;;;;;2075687;28;20488;-64
2022/05/27 06:44:10;;;;;;;13.27;2.60;;;;;;;;;;2078330;28;20033;-63
2022/05/27 06:45:29;;;;;;;15.32;2.55;;;;;;;;;;2072859;28;20049;-64
2022/05/27 06:46:51;;;;;;;10.05;2.50;;;;;;;;;;2072337;28;20030;-63
2022/05/27 06:48:10;;;;;;;6.93;2.50;;;;;;;;;;2079086;28;20029;-64
2022/05/27 06:49:29;;;;;;;8.88;2.42;;;;;;;;;;2076961;28;20396;-63
2022/05/27 06:50:48;;;;;;;11.73;2.30;;;;;;;;;;2076908;28;20029;-64
2022/05/27 06:52:07;;;;;;;11.98;2.53;;;;;;;;;;2076884;28;20053;-64
2022/05/27 06:53:26;;;;;;;14.85;3.15;;;;;;;;;;2077241;28;20042;-64
2022/05/27 06:54:45;;;;;;;9.75;2.17;;;;;;;;;;2075339;28;20045;-64
2022/05/27 06:56:03;;;;;;;8.57;2.30;;;;;;;;;;2075688;28;20037;-65
2022/05/27 06:57:22;;;;;;;8.95;2.25;;;;;;;;;;2074688;28;20415;-64
2022/05/27 06:58:42;;;;;;;11.77;2.45;;;;;;;;;;2076571;28;20411;-64
2022/05/27 07:00:01;;;;;;;9.93;2.80;;;;;;;;;;2076642;28;20025;-64
2022/05/27 07:01:20;;;;;;;10.82;2.38;;;;;;;;;;2076160;28;20408;-63
2022/05/27 07:02:39;;;;;;;10.63;2.33;;;;;;;;;;2075422;28;20057;-64
2022/05/27 07:03:58;;;;;;;3.70;2.20;;;;;;;;;;2075441;28;20427;-63
2022/05/27 07:05:18;;;;;;;9.57;2.33;;;;;;;;;;2076505;28;20057;-64
2022/05/27 07:06:41;;;;;;;6.72;2.40;;;;;;;;;;2076945;28;20033;-63
2022/05/27 07:08:00;;;;;;;;;;;;;;;;;;2077747;28;20069;-64
2022/05/27 07:09:21;;;;;;;6.70;2.10;;;;;;;;;;2076461;28;19906;-64
2022/05/27 07:10:40;;;;;;;9.45;2.45;;;;;;;;;;2076421;28;20423;-64
2022/05/27 07:11:59;;;;;;;9.93;2.33;;;;;;;;;;2070404;28;20038;-64
2022/05/27 07:13:18;;;;;;;8.35;3.00;;;;;;;;;;2072011;28;20525;-64
2022/05/27 07:14:39;;;;;;;9.50;2.20;;;;;;;;;;2070879;28;20054;-64
2022/05/27 07:15:58;;;;;;;3.88;2.03;;;;;;;;;;2074940;28;20034;-65
2022/05/27 07:17:17;;;;;;;7.45;2.53;;;;;;;;;;2076396;28;20026;-64
2022/05/27 07:18:36;;;;;;;8.80;2.58;;;;;;;;;;2076217;28;20029;-65
2022/05/27 07:19:54;;;;;;;6.55;2.60;;;;;;;;;;2075833;28;20057;-64
2022/05/27 07:21:13;;;;;;;7.10;1.88;;;;;;;;;;2072475;28;20030;-64
2022/05/27 07:22:33;;;;;;;6.30;1.80;;;;;;;;;;2075297;28;20420;-65
2022/05/27 07:23:55;;;;;;;5.05;2.10;;;;;;;;;;2073673;28;20458;-65
2022/05/27 07:25:14;;;;;;;8.90;1.98;;;;;;;;;;2073572;28;20476;-65
2022/05/27 07:26:33;;;;;;;6.38;1.92;;;;;;;;;;2076149;28;20041;-64
2022/05/27 07:27:52;;;;;;;10.82;2.17;;;;;;;;;;2075899;28;20492;-65
2022/05/27 07:29:12;;;;;;;5.75;1.60;;;;;;;;;;2075813;28;20488;-65
2022/05/27 07:30:32;;;;;;;4.97;1.88;;;;;;;;;;2083052;28;20527;-66
2022/05/27 07:31:50;;;;;;;7.10;2.33;;;;;;;;;;2074642;28;20512;-65
2022/05/27 07:33:09;;;;;;;6.25;1.85;;;;;;;;;;2074583;28;20026;-65
2022/05/27 07:34:28;;;;;;;19.55;2.53;;;;;;;;;;2078256;28;20026;-65
2022/05/27 07:35:48;;;;;;;4.60;1.60;;;;;;;;;;2073700;28;20044;-66
2022/05/27 07:37:06;;;;;;;12.95;2.55;;;;;;;;;;2074709;28;20130;-65
2022/05/27 07:38:25;;;;;;;8.38;2.20;;;;;;;;;;2076627;28;20448;-65
2022/05/27 07:39:44;;;;;;;7.22;1.80;;;;;;;;;;2072682;28;20026;-66
2022/05/27 07:41:07;;;;;;;7.55;1.95;;;;;;;;;;2075058;28;20026;-67
2022/05/27 07:42:26;;;;;;;;;;;;;;;;;;2074348;28;20026;-64
2022/05/27 07:43:46;;;;;;;5.70;2.28;;;;;;;;;;2075291;28;19905;-64
2022/05/27 07:45:06;;;;;;;4.82;1.65;;;;;;;;;;2073775;28;20480;-65
2022/05/27 07:46:25;;;;;;;10.40;1.80;;;;;;;;;;2077209;28;20033;-65
2022/05/27 07:47:44;;;;;;;6.05;1.55;;;;;;;;;;2075736;28;20030;-65
2022/05/27 07:49:04;;;;;;;4.10;1.90;;;;;;;;;;2077030;28;20026;-65
2022/05/27 07:50:23;;;;;;;4.57;1.52;;;;;;;;;;2075016;28;20034;-65
2022/05/27 07:51:42;;;;;;;3.45;1.50;;;;;;;;;;2077412;28;20037;-65
2022/05/27 07:53:01;;;;;;;6.32;1.95;;;;;;;;;;2073826;28;20030;-65
2022/05/27 07:54:20;;;;;;;6.53;1.63;;;;;;;;;;2076360;28;20021;-65
2022/05/27 07:55:39;;;;;;;4.75;1.95;;;;;;;;;;2074468;28;20026;-65
2022/05/27 07:56:58;;;;;;;10.07;2.08;;;;;;;;;;2068045;28;20065;-65
2022/05/27 07:58:17;;;;;;;9.43;2.35;;;;;;;;;;2076084;28;20038;-64
2022/05/27 07:59:36;;;;;;;4.72;2.00;;;;;;;;;;2076768;28;20389;-64
2022/05/27 08:00:55;;;;;;;2.67;1.42;;;;;;;;;;2075634;28;20057;-65
2022/05/27 08:02:14;;;;;;;3.85;1.48;;;;;;;;;;2075591;28;20029;-66
2022/05/27 08:03:33;;;;;;;8.18;1.80;;;;;;;;;;2075843;28;20042;-65
2022/05/27 08:04:52;;;;;;;5.60;1.77;;;;;;;;;;2076973;28;20101;-65
2022/05/27 08:06:11;;;;;;;3.20;1.67;;;;;;;;;;2077072;28;20034;-65
2022/05/27 08:07:30;;;;;;;9.70;1.85;;;;;;;;;;2075532;28;20074;-65
2022/05/27 08:08:49;;;;;;;5.60;2.03;;;;;;;;;;2076250;28;20033;-65
2022/05/27 08:10:09;;;;;;;7.60;2.38;;;;;;;;;;2079636;28;20030;-65
2022/05/27 08:11:27;;;;;;;6.63;2.05;;;;;;;;;;2080131;28;20071;-66
2022/05/27 08:12:46;;;;;;;4.97;1.30;;;;;;;;;;2076540;28;20045;-65
2022/05/27 08:14:05;;;;;;;8.75;1.83;;;;;;;;;;2076725;28;20037;-65
2022/05/27 08:15:25;;;;;;;5.85;2.03;;;;;;;;;;2076639;28;20026;-65
2022/05/27 08:16:43;;;;;;;7.45;2.17;;;;;;;;;;2077397;28;20033;-64
2022/05/27 08:18:03;;;;;;;8.35;2.10;;;;;;;;;;2076061;28;20034;-64
2022/05/27 08:19:22;;;;;;;6.03;1.60;;;;;;;;;;2075416;28;20030;-66
2022/05/27 08:20:41;;;;;;;4.22;1.70;;;;;;;;;;2078374;28;20108;-64
2022/05/27 08:22:00;;;;;;;6.90;2.22;;;;;;;;;;2078074;28;20061;-64